Time,TemperatureF,DewpointF,PressureIn,WindDirection,WindDirectionDegrees,WindSpeedMPH,WindSpeedGustMPH,Humidity,HourlyPrecipIn,Conditions,Clouds,dailyrainin,SolarRadiationWatts/m^2,SoftwareType,DateUTC
2013-08-23 00:04:00,66.0,66.0,30.45,SSW,192,3.0,7.0,99,0.00,,,0.00,0.000000,,2013-08-23 04:04:00,
2013-08-23 00:10:00,64.0,64.0,30.51,ESE,121,2.0,8.0,99,0.00,,,0.00,0.000000,,2013-08-23 04:10:00,
2013-08-23 00:43:00,64.0,64.0,30.51,ESE,121,2.0,8.0,99,0.00,,,0.00,0.000000,,2013-08-23 04:43:00,
2013-08-23 00:54:00,64.0,64.0,30.51,ESE,121,2.0,8.0,99,0.00,,,0.00,0.000000,,2013-08-23 04:54:00,
2013-08-23 01:04:00,64.0,64.0,30.51,ESE,121,2.0,8.0,99,0.00,,,0.00,0.000000,,2013-08-23 05:04:00,
2013-08-23 01:10:00,65.0,65.0,30.53,SSE,167,2.0,4.0,99,0.00,,,0.00,0.000000,,2013-08-23 05:10:00,
2013-08-23 01:42:00,65.0,65.0,30.53,SSE,167,2.0,4.0,99,0.00,,,0.00,0.000000,,2013-08-23 05:42:00,
2013-08-23 01:53:00,65.0,65.0,30.53,SSE,167,2.0,4.0,99,0.00,,,0.00,0.000000,,2013-08-23 05:53:00,
2013-08-23 02:02:00,65.0,65.0,30.53,SSE,167,2.0,4.0,99,0.00,,,0.00,0.000000,,2013-08-23 06:02:00,
2013-08-23 02:10:00,65.0,65.0,30.55,East,101,1.0,5.0,99,0.00,,,0.00,0.000000,,2013-08-23 06:10:00,
2013-08-23 02:42:00,65.0,65.0,30.55,East,101,1.0,5.0,99,0.00,,,0.00,0.000000,,2013-08-23 06:42:00,
2013-08-23 02:52:00,65.0,65.0,30.55,East,101,1.0,5.0,99,0.00,,,0.00,0.000000,,2013-08-23 06:52:00,
2013-08-23 03:01:00,65.0,65.0,30.55,East,101,1.0,5.0,99,0.00,,,0.00,0.000000,,2013-08-23 07:01:00,
2013-08-23 03:10:00,63.0,63.0,30.51,NNE,14,1.0,6.0,99,0.00,,,0.00,0.000000,,2013-08-23 07:10:00,
2013-08-23 03:42:00,63.0,63.0,30.51,NNE,14,1.0,6.0,99,0.00,,,0.00,0.000000,,2013-08-23 07:42:00,
2013-08-23 03:53:00,63.0,63.0,30.51,NNE,14,1.0,6.0,99,0.00,,,0.00,0.000000,,2013-08-23 07:53:00,
2013-08-23 04:02:00,63.0,63.0,30.51,NNE,14,1.0,6.0,99,0.00,,,0.00,0.000000,,2013-08-23 08:02:00,
2013-08-23 04:10:00,63.0,63.0,30.49,North,354,1.0,4.0,99,0.00,,,0.00,0.000000,,2013-08-23 08:10:00,
2013-08-23 04:42:00,63.0,63.0,30.49,North,354,1.0,4.0,99,0.00,,,0.00,0.000000,,2013-08-23 08:42:00,
2013-08-23 04:52:00,63.0,63.0,30.49,North,354,1.0,4.0,99,0.00,,,0.00,0.000000,,2013-08-23 08:52:00,
2013-08-23 05:01:00,63.0,63.0,30.49,North,354,1.0,4.0,99,0.00,,,0.00,0.000000,,2013-08-23 09:01:00,
2013-08-23 05:10:00,64.0,64.0,30.48,South,169,2.0,3.0,99,0.00,,,0.00,0.000000,,2013-08-23 09:10:00,
2013-08-23 05:43:00,64.0,64.0,30.48,South,169,2.0,3.0,99,0.00,,,0.00,0.000000,,2013-08-23 09:43:00,
2013-08-23 05:53:00,64.0,64.0,30.48,South,169,2.0,3.0,99,0.00,,,0.00,0.000000,,2013-08-23 09:53:00,
2013-08-23 06:03:00,64.0,64.0,30.48,South,169,2.0,3.0,99,0.00,,,0.00,0.000000,,2013-08-23 10:03:00,
2013-08-23 06:10:00,64.0,64.0,30.50,NNE,19,1.0,4.0,99,0.00,,,0.00,0.000000,,2013-08-23 10:10:00,
2013-08-23 06:42:00,64.0,64.0,30.50,NNE,19,1.0,4.0,99,0.00,,,0.00,0.000000,,2013-08-23 10:42:00,
2013-08-23 06:53:00,64.0,64.0,30.50,NNE,19,1.0,4.0,99,0.00,,,0.00,0.000000,,2013-08-23 10:53:00,
2013-08-23 07:02:00,64.0,64.0,30.50,NNE,19,1.0,4.0,99,0.00,,,0.00,0.000000,,2013-08-23 11:02:00,
2013-08-23 07:10:00,63.0,63.0,30.50,NNW,345,1.0,4.0,99,0.00,,,0.00,0.000000,,2013-08-23 11:10:00,
2013-08-23 07:42:00,63.0,63.0,30.50,NNW,345,1.0,4.0,99,0.00,,,0.00,0.000000,,2013-08-23 11:42:00,
2013-08-23 07:53:00,63.0,63.0,30.50,NNW,345,1.0,4.0,99,0.00,,,0.00,0.000000,,2013-08-23 11:53:00,
2013-08-23 08:01:00,63.0,63.0,30.50,NNW,345,1.0,4.0,99,0.00,,,0.00,0.000000,,2013-08-23 12:01:00,
2013-08-23 08:10:00,63.0,63.0,30.53,North,356,1.0,2.0,99,0.00,,,0.00,17.000000,,2013-08-23 12:10:00,
2013-08-23 08:42:00,63.0,63.0,30.53,North,356,1.0,2.0,99,0.00,,,0.00,17.000000,,2013-08-23 12:42:00,
2013-08-23 08:52:00,63.0,63.0,30.53,North,356,1.0,2.0,99,0.00,,,0.00,17.000000,,2013-08-23 12:52:00,
2013-08-23 09:02:00,63.0,63.0,30.53,North,356,1.0,2.0,99,0.00,,,0.00,17.000000,,2013-08-23 13:02:00,
2013-08-23 09:10:00,65.0,65.0,30.61,North,4,1.0,4.0,99,0.00,,,0.00,80.000000,,2013-08-23 13:10:00,
2013-08-23 09:42:00,65.0,65.0,30.61,North,4,1.0,4.0,99,0.00,,,0.00,80.000000,,2013-08-23 13:42:00,
2013-08-23 09:53:00,65.0,65.0,30.61,North,4,1.0,4.0,99,0.00,,,0.00,80.000000,,2013-08-23 13:53:00,
2013-08-23 10:02:00,65.0,65.0,30.61,North,4,1.0,4.0,99,0.00,,,0.00,80.000000,,2013-08-23 14:02:00,
2013-08-23 10:10:00,67.0,67.0,30.68,East,93,1.0,4.0,99,0.00,,,0.00,172.000000,,2013-08-23 14:10:00,
2013-08-23 10:42:00,67.0,67.0,30.68,East,93,1.0,4.0,99,0.00,,,0.00,172.000000,,2013-08-23 14:42:00,
2013-08-23 10:52:00,67.0,67.0,30.68,East,93,1.0,4.0,99,0.00,,,0.00,172.000000,,2013-08-23 14:52:00,
2013-08-23 11:01:00,67.0,67.0,30.68,East,93,1.0,4.0,99,0.00,,,0.00,172.000000,,2013-08-23 15:01:00,
2013-08-23 11:10:00,79.0,68.0,30.86,ENE,63,1.0,5.0,70,0.00,,,-99.99,489.000000,,2013-08-23 15:10:00,
2013-08-23 12:10:00,82.0,67.0,30.89,SW,224,2.0,5.0,60,0.00,,,0.00,755.000000,,2013-08-23 16:10:00,
2013-08-23 13:10:00,83.0,67.0,30.77,WNW,292,3.0,9.0,59,0.00,,,0.00,872.000000,,2013-08-23 17:10:00,
2013-08-23 13:43:00,83.0,67.0,30.77,WNW,292,3.0,9.0,59,0.00,,,0.00,872.000000,,2013-08-23 17:43:00,
2013-08-23 13:54:00,83.0,67.0,30.77,WNW,292,3.0,9.0,59,0.00,,,0.00,872.000000,,2013-08-23 17:54:00,
2013-08-23 14:02:00,83.0,67.0,30.77,WNW,292,3.0,9.0,59,0.00,,,0.00,872.000000,,2013-08-23 18:02:00,
2013-08-23 14:10:00,85.0,68.0,30.75,WNW,288,3.0,9.0,56,0.00,,,0.00,908.000000,,2013-08-23 18:10:00,
2013-08-23 14:42:00,85.0,68.0,30.75,WNW,288,3.0,9.0,56,0.00,,,0.00,908.000000,,2013-08-23 18:42:00,
2013-08-23 14:52:00,85.0,68.0,30.75,WNW,288,3.0,9.0,56,0.00,,,0.00,908.000000,,2013-08-23 18:52:00,
2013-08-23 15:02:00,85.0,68.0,30.75,WNW,288,3.0,9.0,56,0.00,,,0.00,908.000000,,2013-08-23 19:02:00,
2013-08-23 18:10:00,73.0,65.0,29.96,NNW,346,3.0,11.0,77,-99.99,,,0.07,300.000000,,2013-08-23 22:10:00,
2013-08-23 18:43:00,73.0,65.0,29.96,NNW,346,3.0,11.0,77,-99.99,,,0.07,300.000000,,2013-08-23 22:43:00,
2013-08-23 18:54:00,73.0,65.0,29.96,NNW,346,3.0,11.0,77,-99.99,,,0.07,300.000000,,2013-08-23 22:54:00,
2013-08-23 19:03:00,73.0,65.0,29.96,NNW,346,3.0,11.0,77,-99.99,,,0.07,300.000000,,2013-08-23 23:03:00,
2013-08-23 19:10:00,70.0,64.0,29.90,WNW,298,2.0,14.0,82,0.07,,,0.14,44.000000,,2013-08-23 23:10:00,
2013-08-23 19:43:00,70.0,64.0,29.90,WNW,298,2.0,14.0,82,0.07,,,0.14,44.000000,,2013-08-23 23:43:00,
2013-08-23 19:54:00,70.0,64.0,29.90,WNW,298,2.0,14.0,82,0.07,,,0.14,44.000000,,2013-08-23 23:54:00,
2013-08-23 20:02:00,70.0,64.0,29.90,WNW,298,2.0,14.0,82,0.07,,,0.14,44.000000,,2013-08-24 00:02:00,
2013-08-23 20:10:00,68.0,64.0,30.23,ENE,67,1.0,8.0,87,0.00,,,0.14,49.000000,,2013-08-24 00:10:00,
2013-08-23 20:43:00,68.0,64.0,30.23,ENE,67,1.0,8.0,87,0.00,,,0.14,49.000000,,2013-08-24 00:43:00,
2013-08-23 20:53:00,68.0,64.0,30.23,ENE,67,1.0,8.0,87,0.00,,,0.14,49.000000,,2013-08-24 00:53:00,
2013-08-23 21:02:00,68.0,64.0,30.23,ENE,67,1.0,8.0,87,0.00,,,0.14,49.000000,,2013-08-24 01:02:00,
2013-08-23 21:10:00,65.0,64.0,30.34,WNW,290,1.0,4.0,97,0.00,,,0.14,0.000000,,2013-08-24 01:10:00,
2013-08-23 21:42:00,65.0,64.0,30.34,WNW,290,1.0,4.0,97,0.00,,,0.14,0.000000,,2013-08-24 01:42:00,
2013-08-23 21:53:00,65.0,64.0,30.34,WNW,290,1.0,4.0,97,0.00,,,0.14,0.000000,,2013-08-24 01:53:00,
2013-08-23 22:03:00,65.0,64.0,30.34,WNW,290,1.0,4.0,97,0.00,,,0.14,0.000000,,2013-08-24 02:03:00,
2013-08-23 22:10:00,66.0,65.0,30.42,SW,216,1.0,4.0,98,0.00,,,0.14,0.000000,,2013-08-24 02:10:00,
2013-08-23 22:42:00,66.0,65.0,30.42,SW,216,1.0,4.0,98,0.00,,,0.14,0.000000,,2013-08-24 02:42:00,
2013-08-23 22:52:00,66.0,65.0,30.42,SW,216,1.0,4.0,98,0.00,,,0.14,0.000000,,2013-08-24 02:52:00,
2013-08-23 23:02:00,66.0,65.0,30.42,SW,216,1.0,4.0,98,0.00,,,0.14,0.000000,,2013-08-24 03:02:00,
2013-08-23 23:10:00,66.0,66.0,30.50,NNE,16,1.0,5.0,99,0.00,,,0.14,0.000000,,2013-08-24 03:10:00,
2013-08-23 23:44:00,66.0,66.0,30.50,NNE,16,1.0,5.0,99,0.00,,,0.14,0.000000,,2013-08-24 03:44:00,
2013-08-23 23:55:00,66.0,66.0,30.50,NNE,16,1.0,5.0,99,0.00,,,0.14,0.000000,,2013-08-24 03:55:00,